Time;durP1;ratioP1;P1;durP2;ratioP2;P2;SDS_P1;SDS_P2;PMS_P1;PMS_P2;Temp;Humidity;BMP_temperature;BMP_pressure;BME280_temperature;BME280_humidity;BME280_pressure;Samples;Min_cycle;Max_cycle;Signal;HPM_P1;HPM_P2
2022/10/23 00:01:31;;;;;;;25.95;17.20;;;;;;;10.10;67.91;99164.54;1713695;82;21553;-41
2022/10/23 00:04:05;;;;;;;27.93;17.35;;;;;;;10.02;68.12;99162.26;1713902;83;21069;-41
2022/10/23 00:06:33;;;;;;;25.75;16.93;;;;;;;10.02;68.38;99164.97;1714005;83;21049;-41
2022/10/23 00:08:59;;;;;;;23.73;15.55;;;;;;;10.06;68.41;99159.64;1713919;82;21105;-41
2022/10/23 00:11:28;;;;;;;28.90;16.45;;;;;;;10.11;68.39;99155.84;1713654;83;21021;-41
2022/10/23 00:13:58;;;;;;;31.73;17.05;;;;;;;10.14;68.47;99156.47;1714071;83;21016;-41
2022/10/23 00:16:26;;;;;;;26.80;16.60;;;;;;;10.17;68.54;99154.41;1713713;83;20977;-41
2022/10/23 00:18:54;;;;;;;28.92;16.85;;;;;;;10.17;68.73;99144.92;1713782;82;20970;-41
2022/10/23 00:21:23;;;;;;;25.20;16.85;;;;;;;10.19;68.85;99148.07;1713801;83;21253;-41
2022/10/23 00:23:50;;;;;;;27.20;16.30;;;;;;;10.20;68.75;99146.94;1713644;82;20989;-41
2022/10/23 00:26:16;;;;;;;25.45;17.30;;;;;;;10.21;68.69;99149.86;1713791;83;21041;-41
2022/10/23 00:28:45;;;;;;;25.90;16.70;;;;;;;10.21;68.74;99141.16;1713777;83;20907;-41
2022/10/23 00:31:12;;;;;;;26.68;16.67;;;;;;;10.21;68.80;99141.73;1713664;82;21547;-41
2022/10/23 00:33:41;;;;;;;30.68;18.20;;;;;;;10.13;69.10;99140.78;1713688;83;23146;-41
2022/10/23 00:36:10;;;;;;;24.65;17.95;;;;;;;10.04;69.31;99135.61;1713893;83;21358;-41
2022/10/23 00:38:37;;;;;;;26.80;17.07;;;;;;;9.97;69.60;99137.42;1714134;83;21559;-41
2022/10/23 00:41:05;;;;;;;24.90;14.93;;;;;;;9.87;69.94;99136.09;1719032;82;21492;-41
2022/10/23 00:43:33;;;;;;;25.92;16.60;;;;;;;9.81;70.43;99134.81;1743659;81;21006;-41
2022/10/23 00:46:01;;;;;;;25.82;16.70;;;;;;;9.82;70.56;99123.42;1743576;82;21124;-41
2022/10/23 00:48:28;;;;;;;24.63;16.77;;;;;;;9.85;70.69;99129.45;1743553;81;20934;-41
2022/10/23 00:50:54;;;;;;;24.90;16.70;;;;;;;9.85;70.77;99127.53;1743479;81;20954;-41
2022/10/23 00:53:21;;;;;;;24.02;16.85;;;;;;;9.83;70.86;99123.04;1743568;81;21006;-41
2022/10/23 00:55:49;;;;;;;27.82;16.82;;;;;;;9.79;71.03;99120.84;1743626;82;21088;-41
2022/10/23 00:58:18;;;;;;;26.57;16.55;;;;;;;9.45;71.29;99074.39;1743346;82;21326;-41
2022/10/23 01:00:52;;;;;;;31.82;16.55;;;;;;;9.73;71.42;99122.27;1743591;82;20962;-41
2022/10/23 01:03:24;;;;;;;28.85;18.07;;;;;;;9.72;71.81;99123.44;1743389;82;20973;-41
2022/10/23 01:06:30;;;;;;;24.75;16.75;;;;;;;9.63;72.04;99122.89;1743551;82;20969;-41
2022/10/23 01:09:15;;;;;;;27.13;16.60;;;;;;;9.59;72.29;99113.89;1743377;82;21002;-41
2022/10/23 01:12:15;;;;;;;29.95;16.40;;;;;;;9.54;72.62;99116.33;1738104;81;21128;-40
2022/10/23 01:15:09;;;;;;;21.42;14.87;;;;;;;9.56;72.71;99113.27;1731670;82;20974;-41
2022/10/23 01:17:45;;;;;;;28.65;17.02;;;;;;;9.57;72.87;99115.63;1743540;82;21638;-41
2022/10/23 01:20:28;;;;;;;27.70;17.35;;;;;;;9.62;73.09;99109.70;1743311;82;20934;-40
2022/10/23 01:23:29;;;;;;;28.12;17.65;;;;;;;9.62;73.11;99106.43;1746041;81;20918;-41
2022/10/23 01:26:24;;;;;;;25.55;16.42;;;;;;;9.63;73.14;99103.16;1748707;81;21236;-41
2022/10/23 01:29:18;;;;;;;29.72;16.80;;;;;;;9.63;73.18;99099.88;1745946;81;21519;-41
2022/10/23 01:31:58;;;;;;;22.62;16.40;;;;;;;9.70;73.16;99101.34;1756673;81;21068;-40
2022/10/23 01:34:52;;;;;;;25.50;17.23;;;;;;;9.69;73.32;99095.72;1756750;81;20986;-41
2022/10/23 01:37:24;;;;;;;29.12;17.00;;;;;;;9.69;73.43;99098.99;1735772;81;21505;-41
2022/10/23 01:39:54;;;;;;;26.70;16.10;;;;;;;9.63;73.53;99095.04;1755499;81;21216;-41
2022/10/23 01:42:25;;;;;;;25.00;16.45;;;;;;;9.58;73.76;99090.70;1756684;81;21002;-41
2022/10/23 01:45:01;;;;;;;24.50;16.90;;;;;;;9.67;73.90;99084.48;1757043;81;21601;-41
2022/10/23 01:47:30;;;;;;;25.97;17.12;;;;;;;9.76;73.79;99089.66;1755981;81;21581;-41
2022/10/23 01:49:59;;;;;;;26.95;17.82;;;;;;;9.79;73.77;99092.42;1756146;81;21072;-41
2022/10/23 01:52:26;;;;;;;24.75;17.27;;;;;;;9.80;73.78;99093.20;1756742;81;21327;-41
2022/10/23 01:54:55;;;;;;;24.25;16.77;;;;;;;9.81;73.88;99094.20;1756588;81;21012;-41
2022/10/23 01:57:22;;;;;;;22.67;15.35;;;;;;;9.86;73.84;99088.49;1756594;81;21012;-41
2022/10/23 01:59:54;;;;;;;25.25;16.77;;;;;;;9.95;73.54;99094.45;1756602;81;20941;-41
2022/10/23 02:02:21;;;;;;;24.55;16.80;;;;;;;9.99;73.37;99090.44;1756761;81;21013;-41
2022/10/23 02:05:09;;;;;;;27.65;17.77;;;;;;;9.94;73.45;99092.88;1756534;81;23185;-40
2022/10/23 02:07:37;;;;;;;30.00;17.55;;;;;;;9.90;73.59;99095.31;1752457;81;21517;-41
2022/10/23 02:10:06;;;;;;;22.27;15.63;;;;;;;9.84;73.84;99093.47;1756432;81;21568;-40
2022/10/23 02:12:59;;;;;;;20.95;15.38;;;;;;;9.81;73.92;99092.85;1756568;81;20973;-41
2022/10/23 02:15:35;;;;;;;26.87;16.70;;;;;;;9.89;73.93;99094.53;1756714;81;20953;-40
2022/10/23 02:18:28;;;;;;;24.85;17.10;;;;;;;9.94;73.92;99094.23;1756090;81;21273;-40
2022/10/23 02:21:08;;;;;;;27.48;17.07;;;;;;;10.00;74.06;99090.09;1756280;81;21011;-41
2022/10/23 02:23:57;;;;;;;26.80;18.45;;;;;;;10.06;73.85;99089.78;1750839;81;21503;-41
2022/10/23 02:26:41;;;;;;;27.93;17.80;;;;;;;10.06;73.67;99091.14;1743609;82;20965;-41
2022/10/23 02:29:34;;;;;;;23.70;17.57;;;;;;;10.09;73.69;99089.83;1743497;82;21084;-41
2022/10/23 02:32:01;;;;;;;23.70;17.75;;;;;;;10.15;73.37;99092.45;1742730;82;21693;-41
2022/10/23 02:34:27;;;;;;;26.93;19.77;;;;;;;10.12;73.38;99094.52;1743446;82;20978;-40
2022/10/23 02:38:53;;;;;;;23.77;16.90;;;;;;;10.17;73.37;99085.33;1775126;79;22667;-41
2022/10/23 02:41:34;;;;;;;24.95;17.25;;;;;;;10.13;73.50;99092.59;1746757;82;20955;-41
2022/10/23 02:44:32;;;;;;;25.77;17.35;;;;;;;10.24;73.40;99089.52;1746650;82;21222;-41
2022/10/23 02:47:16;;;;;;;21.65;17.00;;;;;;;10.38;73.16;99092.45;1746395;82;20970;-41
2022/10/23 02:50:34;;;;;;;24.07;17.55;;;;;;;10.37;72.87;99093.59;1746775;82;21006;-41
2022/10/23 02:53:22;;;;;;;26.27;16.62;;;;;;;10.32;72.82;99091.19;1746508;82;20982;-40
2022/10/23 02:56:11;;;;;;;22.37;15.80;;;;;;;10.18;73.11;99083.62;1746521;82;21556;-41
2022/10/23 02:58:59;;;;;;;21.70;15.15;;;;;;;10.20;73.44;99090.05;1746614;82;21288;-40
2022/10/23 03:01:30;;;;;;;21.20;15.40;;;;;;;10.29;73.30;99094.63;1746511;82;20967;-40
2022/10/23 03:03:59;;;;;;;20.52;15.38;;;;;;;10.31;73.45;99089.64;1745160;82;20967;-41
2022/10/23 03:06:26;;;;;;;20.75;16.57;;;;;;;10.32;73.33;99087.13;1746863;82;21078;-41
2022/10/23 03:09:01;;;;;;;21.65;15.85;;;;;;;10.25;73.30;99091.09;1746493;82;20931;-41
2022/10/23 03:11:28;;;;;;;19.57;14.10;;;;;;;10.21;73.49;99083.48;1746772;82;21225;-41
2022/10/23 03:13:56;;;;;;;18.75;14.10;;;;;;;10.22;73.60;99089.88;1746390;82;21087;-41
2022/10/23 03:16:23;;;;;;;19.15;14.90;;;;;;;10.27;73.62;99084.72;1746614;82;20943;-41
2022/10/23 03:18:52;;;;;;;17.45;14.45;;;;;;;10.30;73.76;99090.22;1746391;82;20986;-41
2022/10/23 03:21:20;;;;;;;19.45;15.20;;;;;;;10.32;73.75;99085.77;1746652;82;21054;-41
2022/10/23 03:23:49;;;;;;;23.00;15.08;;;;;;;10.35;73.82;99086.41;1746640;82;21147;-41
2022/10/23 03:26:17;;;;;;;15.65;13.30;;;;;;;10.42;73.86;99086.50;1746501;82;21528;-41
2022/10/23 03:28:45;;;;;;;20.68;14.35;;;;;;;10.50;73.62;99088.19;1746391;82;21026;-40
2022/10/23 03:31:12;;;;;;;18.10;14.20;;;;;;;10.54;73.31;99082.81;1746208;82;21046;-41
2022/10/23 03:33:39;;;;;;;19.90;14.80;;;;;;;10.50;73.45;99082.77;1746417;82;21050;-41
2022/10/23 03:36:09;;;;;;;18.40;14.07;;;;;;;10.43;73.59;99084.80;1746343;82;21241;-41
2022/10/23 03:38:35;;;;;;;17.98;13.58;;;;;;;10.38;73.96;99089.17;1736343;82;21023;-41
2022/10/23 03:41:05;;;;;;;16.95;13.03;;;;;;;10.39;74.11;99081.82;1733032;82;21014;-41
2022/10/23 03:43:33;;;;;;;14.73;12.75;;;;;;;10.42;74.21;99085.15;1733200;82;21525;-41
2022/10/23 03:46:00;;;;;;;19.35;14.43;;;;;;;10.46;74.18;99090.05;1733210;82;21032;-41
2022/10/23 03:48:30;;;;;;;19.70;14.20;;;;;;;10.43;74.29;99085.36;1732954;82;23152;-41
2022/10/23 03:50:59;;;;;;;17.35;13.75;;;;;;;10.38;74.49;99088.38;1732570;82;21047;-41
2022/10/23 03:53:26;;;;;;;19.00;13.03;;;;;;;10.38;74.59;99089.17;1732563;82;22069;-41
2022/10/23 03:55:52;;;;;;;18.32;13.05;;;;;;;10.37;74.60;99086.24;1732559;82;21098;-41
2022/10/23 03:58:20;;;;;;;16.85;13.13;;;;;;;10.39;74.78;99083.17;1732684;82;21042;-41
2022/10/23 04:00:46;;;;;;;16.93;13.85;;;;;;;10.37;75.04;99084.10;1732612;82;21246;-41
2022/10/23 04:03:14;;;;;;;20.25;13.72;;;;;;;10.34;75.10;99084.27;1732462;82;21058;-41
2022/10/23 04:05:41;;;;;;;15.32;12.20;;;;;;;10.28;75.27;99079.52;1732739;82;21537;-41
2022/10/23 04:08:10;;;;;;;16.27;13.37;;;;;;;10.27;75.56;99079.30;1732734;82;20905;-41
2022/10/23 04:10:39;;;;;;;18.27;13.48;;;;;;;10.34;75.49;99077.50;1732641;82;21015;-41
2022/10/23 04:13:07;;;;;;;19.92;14.65;;;;;;;10.39;75.50;99076.41;1732533;82;21581;-41
2022/10/23 04:15:37;;;;;;;;;;;;;;;10.36;75.61;99075.78;1735154;82;21015;-41
2022/10/23 04:18:05;;;;;;;18.65;13.75;;;;;;;10.32;75.86;99073.00;1732624;81;20127;-41
2022/10/23 04:20:31;;;;;;;18.12;13.35;;;;;;;10.22;76.26;99074.19;1732520;82;21056;-40
2022/10/23 04:23:00;;;;;;;18.40;13.50;;;;;;;10.24;76.33;99070.55;1732400;82;21477;-41
2022/10/23 04:25:27;;;;;;;16.85;14.13;;;;;;;10.27;76.31;99072.52;1761056;80;21324;-41
2022/10/23 04:27:54;;;;;;;20.23;14.30;;;;;;;10.25;76.52;99062.08;1774256;80;21018;-41
2022/10/23 04:30:21;;;;;;;18.35;14.55;;;;;;;10.23;76.72;99064.35;1768142;80;20902;-41
2022/10/23 04:32:52;;;;;;;18.65;13.88;;;;;;;10.23;76.87;99062.21;1767862;80;20949;-41
2022/10/23 04:35:19;;;;;;;;;;;;;;;10.26;76.86;99061.50;1776696;80;21064;-41
2022/10/23 04:37:46;;;;;;;18.40;13.98;;;;;;;10.33;76.74;99056.95;1776262;80;23122;-41
2022/10/23 04:40:14;;;;;;;18.95;14.87;;;;;;;10.28;76.99;99056.48;1782383;80;20898;-41
2022/10/23 04:42:40;;;;;;;19.60;14.87;;;;;;;10.29;77.08;99066.19;1782461;80;20969;-41
2022/10/23 04:45:09;;;;;;;19.82;15.08;;;;;;;10.30;77.21;99067.75;1782252;80;21387;-41
2022/10/23 04:47:35;;;;;;;19.70;14.53;;;;;;;10.31;77.20;99067.37;1782503;80;20985;-41
2022/10/23 04:50:06;;;;;;;21.07;14.40;;;;;;;10.38;77.17;99076.19;1782379;80;21223;-41
2022/10/23 04:52:56;;;;;;;20.50;15.00;;;;;;;10.46;77.10;99076.49;1782322;80;20961;-41
2022/10/23 04:55:24;;;;;;;19.77;15.08;;;;;;;10.43;77.08;99075.88;1782334;80;20953;-41
2022/10/23 04:57:52;;;;;;;19.37;14.35;;;;;;;10.40;77.30;99080.68;1779198;80;21041;-41
2022/10/23 05:00:22;;;;;;;17.35;13.48;;;;;;;10.44;77.28;99078.80;1781978;80;21080;-41
2022/10/23 05:02:52;;;;;;;19.02;14.93;;;;;;;10.51;77.17;99076.17;1782435;80;22591;-41
2022/10/23 05:05:19;;;;;;;20.68;15.03;;;;;;;10.58;77.10;99080.36;1782597;80;20961;-40
2022/10/23 05:07:57;;;;;;;20.35;15.55;;;;;;;10.56;77.00;99079.14;1738979;82;21056;-41
2022/10/23 05:10:26;;;;;;;18.10;14.75;;;;;;;10.51;77.21;99078.89;1780440;80;21013;-41
2022/10/23 05:12:57;;;;;;;18.82;13.83;;;;;;;10.53;77.28;99075.25;1778645;80;21467;-41
2022/10/23 05:15:24;;;;;;;19.95;14.35;;;;;;;10.57;77.22;99075.30;1782304;80;21087;-41
2022/10/23 05:17:56;;;;;;;19.45;14.73;;;;;;;10.61;77.21;99074.77;1782170;80;21589;-41
2022/10/23 05:20:29;;;;;;;19.98;15.43;;;;;;;10.65;77.38;99070.95;1782635;80;20969;-41
2022/10/23 05:22:56;;;;;;;19.52;14.35;;;;;;;10.66;77.31;99071.17;1782291;80;20933;-41
2022/10/23 05:25:24;;;;;;;77.65;53.30;;;;;;;10.69;77.27;99068.31;1782347;80;21040;-41
2022/10/23 05:27:53;;;;;;;29.67;19.87;;;;;;;10.76;77.14;99073.25;1780620;80;23203;-41
2022/10/23 05:30:21;;;;;;;38.83;25.27;;;;;;;10.78;77.02;99069.61;1782238;80;20997;-41
2022/10/23 05:32:48;;;;;;;20.35;15.80;;;;;;;10.76;77.10;99076.53;1782319;80;20961;-41
2022/10/23 05:35:18;;;;;;;20.70;14.53;;;;;;;10.73;77.32;99082.12;1782473;80;20980;-41
2022/10/23 05:37:49;;;;;;;19.00;14.55;;;;;;;10.74;77.39;99077.48;1782637;80;21065;-41
2022/10/23 05:40:20;;;;;;;18.90;14.07;;;;;;;10.79;77.32;99080.66;1782642;80;21216;-41
2022/10/23 05:42:50;;;;;;;24.27;18.52;;;;;;;10.85;77.43;99076.46;1782577;80;20937;-41
2022/10/23 05:45:19;;;;;;;44.27;31.30;;;;;;;10.84;77.39;99077.61;1782367;80;20925;-41
2022/10/23 05:48:05;;;;;;;31.97;22.22;;;;;;;10.83;77.57;99079.34;1782383;80;21428;-41
2022/10/23 05:50:43;;;;;;;51.45;38.33;;;;;;;10.84;77.54;99087.09;1770098;80;21550;-40
2022/10/23 05:53:20;;;;;;;36.38;23.62;;;;;;;10.92;77.60;99081.20;1780889;80;23162;-41
2022/10/23 05:56:04;;;;;;;52.93;36.28;;;;;;;10.99;77.60;99090.02;1766801;80;21016;-40
2022/10/23 05:58:49;;;;;;;24.67;17.67;;;;;;;10.96;77.60;99079.31;1782552;80;20970;-40
2022/10/23 06:01:18;;;;;;;23.75;17.35;;;;;;;10.93;77.79;99082.78;1781016;80;21025;-40
2022/10/23 06:03:59;;;;;;;22.60;17.07;;;;;;;10.95;77.85;99083.74;1782126;80;21025;-41
2022/10/23 06:06:27;;;;;;;21.93;15.03;;;;;;;11.01;77.76;99075.50;1781018;80;21668;-41
2022/10/23 06:08:54;;;;;;;24.32;15.25;;;;;;;11.04;77.79;99077.46;1782401;80;20941;-41
2022/10/23 06:11:21;;;;;;;21.42;16.05;;;;;;;11.03;78.03;99079.42;1782702;80;21028;-41
2022/10/23 06:13:53;;;;;;;22.17;14.95;;;;;;;11.01;78.17;99075.50;1781495;80;20976;-41
2022/10/23 06:16:23;;;;;;;20.45;16.35;;;;;;;10.98;78.28;99078.39;1782612;80;21558;-41
2022/10/23 06:18:50;;;;;;;22.90;16.97;;;;;;;11.04;78.28;99080.17;1782774;80;21808;-41
2022/10/23 06:21:18;;;;;;;22.17;16.25;;;;;;;11.10;78.38;99085.48;1782387;80;21021;-41
2022/10/23 06:23:47;;;;;;;25.80;16.73;;;;;;;11.10;78.45;99088.20;1782538;80;21035;-41
2022/10/23 06:26:15;;;;;;;23.02;16.05;;;;;;;11.11;78.63;99082.98;1782319;80;20960;-41
2022/10/23 06:28:48;;;;;;;22.15;15.95;;;;;;;11.11;78.60;99082.98;1781064;80;21033;-41
2022/10/23 06:31:17;;;;;;;23.52;16.55;;;;;;;11.15;78.60;99083.23;1782172;80;21129;-41
2022/10/23 06:33:44;;;;;;;25.75;18.40;;;;;;;11.21;78.58;99104.83;1782201;80;20957;-41
2022/10/23 06:36:11;;;;;;;27.98;18.52;;;;;;;11.21;78.76;99105.40;1782171;80;21012;-41
2022/10/23 06:38:41;;;;;;;26.10;18.15;;;;;;;11.19;78.76;99108.47;1782251;80;21016;-41
2022/10/23 06:41:15;;;;;;;21.87;16.90;;;;;;;11.17;78.85;99105.94;1782219;80;20945;-41
2022/10/23 06:43:43;;;;;;;25.75;17.62;;;;;;;11.21;78.87;99110.83;1782260;80;21219;-41
2022/10/23 06:46:31;;;;;;;25.43;18.32;;;;;;;11.27;78.82;99116.14;1775530;80;21603;-41
2022/10/23 06:49:15;;;;;;;;;;;;;;;11.26;78.94;99106.43;1778610;80;21514;-41
2022/10/23 06:51:43;;;;;;;27.55;17.42;;;;;;;11.24;78.96;99111.44;1781796;80;20136;-41
2022/10/23 06:54:12;;;;;;;29.52;18.95;;;;;;;11.21;79.17;99106.76;1782148;80;20981;-41
2022/10/23 06:56:45;;;;;;;30.32;20.17;;;;;;;11.26;79.16;99105.86;1772623;80;21248;-41
2022/10/23 06:59:13;;;;;;;30.17;20.62;;;;;;;11.28;79.25;99109.54;1782003;80;20973;-41
2022/10/23 07:01:40;;;;;;;30.27;20.17;;;;;;;11.27;79.26;99103.93;1782181;80;20930;-41
2022/10/23 07:04:07;;;;;;;28.83;19.32;;;;;;;11.23;79.21;99101.75;1782359;80;21044;-41
2022/10/23 07:06:34;;;;;;;29.63;20.43;;;;;;;11.26;79.35;99096.36;1782133;80;21049;-41
2022/10/23 07:09:03;;;;;;;31.45;20.70;;;;;;;11.33;79.35;99097.78;1782101;80;21052;-41
2022/10/23 07:11:48;;;;;;;30.05;20.75;;;;;;;11.36;79.47;99098.20;1782118;80;21549;-41
2022/10/23 07:14:18;;;;;;;31.37;20.50;;;;;;;11.34;79.70;99099.92;1782317;80;21495;-41
2022/10/23 07:16:45;;;;;;;29.87;19.73;;;;;;;11.33;79.80;99096.43;1782226;80;21072;-41
2022/10/23 07:19:14;;;;;;;29.60;19.77;;;;;;;11.41;79.71;99099.23;1782304;80;20929;-41
2022/10/23 07:21:44;;;;;;;32.08;21.10;;;;;;;11.47;79.73;99095.83;1782354;80;21907;-41
2022/10/23 07:24:30;;;;;;;30.90;20.85;;;;;;;11.48;79.84;99097.37;1782273;80;21016;-41
2022/10/23 07:26:59;;;;;;;28.12;19.07;;;;;;;11.46;79.88;99098.33;1782369;80;21582;-41
2022/10/23 07:29:26;;;;;;;29.50;19.57;;;;;;;11.51;80.01;99105.36;1782372;80;20965;-41
2022/10/23 07:31:53;;;;;;;28.87;20.02;;;;;;;11.55;79.91;99098.03;1782457;80;21013;-41
2022/10/23 07:34:23;;;;;;;31.50;21.30;;;;;;;11.59;79.90;99094.20;1782700;80;21578;-41
2022/10/23 07:36:53;;;;;;;30.15;19.60;;;;;;;11.62;80.13;99095.38;1780255;80;21290;-41
2022/10/23 07:39:21;;;;;;;26.48;18.40;;;;;;;11.67;80.13;99091.75;1782357;80;21013;-41
2022/10/23 07:41:50;;;;;;;28.27;19.12;;;;;;;11.73;80.05;99093.59;1782330;80;21570;-41
2022/10/23 07:44:18;;;;;;;27.77;19.50;;;;;;;11.80;79.85;99096.96;1782247;80;20992;-41
2022/10/23 07:46:46;;;;;;;27.93;19.07;;;;;;;11.79;79.95;99098.89;1782376;80;21238;-41
2022/10/23 07:49:13;;;;;;;28.17;17.98;;;;;;;11.78;80.01;99097.89;1782192;80;20972;-41
2022/10/23 07:51:40;;;;;;;27.73;16.90;;;;;;;11.76;80.19;99094.97;1782413;80;21012;-41
2022/10/23 07:54:11;;;;;;;23.22;17.15;;;;;;;11.84;80.09;99097.20;1782209;80;21044;-41
2022/10/23 07:56:59;;;;;;;25.75;18.07;;;;;;;11.93;80.08;99096.30;1782481;80;24048;-41
2022/10/23 07:59:27;;;;;;;27.17;18.40;;;;;;;11.95;80.03;99096.72;1780802;80;21254;-41
2022/10/23 08:01:55;;;;;;;25.80;17.75;;;;;;;11.96;80.05;99097.48;1782533;80;20973;-41
2022/10/23 08:04:23;;;;;;;25.35;17.27;;;;;;;11.98;80.04;99101.97;1782558;80;20964;-41
2022/10/23 08:06:59;;;;;;;24.67;17.48;;;;;;;12.05;79.82;99103.41;1781620;80;21043;-41
2022/10/23 08:09:27;;;;;;;29.67;18.95;;;;;;;12.03;79.78;99102.98;1782367;80;21079;-41
2022/10/23 08:11:54;;;;;;;22.77;16.87;;;;;;;11.98;80.07;99106.05;1782370;80;21241;-41
2022/10/23 08:14:22;;;;;;;23.10;17.00;;;;;;;11.97;80.21;99112.63;1782113;80;21020;-41
2022/10/23 08:16:51;;;;;;;25.68;17.57;;;;;;;12.00;80.16;99113.27;1782562;80;21551;-41
2022/10/23 08:19:17;;;;;;;25.12;17.73;;;;;;;12.02;80.23;99112.29;1782328;80;21662;-41
2022/10/23 08:21:45;;;;;;;28.73;18.45;;;;;;;11.99;80.33;99111.69;1782705;80;21100;-41
2022/10/23 08:24:13;;;;;;;24.30;15.72;;;;;;;11.96;80.42;99114.56;1782511;80;21192;-41
2022/10/23 08:26:42;;;;;;;27.10;17.10;;;;;;;11.98;80.60;99112.27;1782617;80;21554;-41
2022/10/23 08:29:09;;;;;;;25.17;18.25;;;;;;;12.01;80.53;99115.58;1782334;80;21092;-41
2022/10/23 08:31:37;;;;;;;25.57;17.52;;;;;;;12.04;80.48;99122.22;1782389;80;21033;-41
2022/10/23 08:34:23;;;;;;;26.05;17.32;;;;;;;12.02;80.51;99119.08;1782603;80;21036;-41
2022/10/23 08:36:50;;;;;;;23.77;16.87;;;;;;;12.01;80.57;99124.30;1782595;80;21129;-41
2022/10/23 08:39:18;;;;;;;25.30;17.10;;;;;;;12.04;80.50;99124.36;1781516;80;21045;-41
2022/10/23 08:41:58;;;;;;;30.12;19.07;;;;;;;12.12;80.64;99122.47;1778890;80;20969;-41
2022/10/23 08:44:41;;;;;;;26.40;17.52;;;;;;;12.18;80.79;99123.70;1779963;80;21572;-41
2022/10/23 08:47:21;;;;;;;25.77;16.52;;;;;;;12.20;80.45;99126.23;1780002;80;21487;-41
2022/10/23 08:50:29;;;;;;;25.43;17.23;;;;;;;12.25;80.42;99125.10;1706228;84;21142;-41
2022/10/23 08:53:19;;;;;;;24.87;16.20;;;;;;;12.32;80.15;99130.61;1767767;80;20942;-41
2022/10/23 08:56:03;;;;;;;26.37;17.48;;;;;;;12.28;79.95;99131.16;1779956;80;21064;-41
2022/10/23 08:58:48;;;;;;;24.30;16.40;;;;;;;12.21;80.29;99131.09;1779756;80;21499;-41
2022/10/23 09:01:39;;;;;;;24.80;16.42;;;;;;;12.20;80.37;99137.10;1779743;80;21036;-41
2022/10/23 09:04:10;;;;;;;25.17;16.55;;;;;;;12.26;80.44;99138.91;1779770;80;21231;-41
2022/10/23 09:07:02;;;;;;;26.37;16.97;;;;;;;12.31;80.63;99140.48;1780172;80;21033;-41
2022/10/23 09:09:43;;;;;;;21.50;15.30;;;;;;;12.35;80.57;99139.36;1779716;80;21012;-41
2022/10/23 09:12:25;;;;;;;19.67;14.30;;;;;;;12.39;80.46;99144.24;1779764;80;20957;-41
2022/10/23 09:15:20;;;;;;;19.50;14.30;;;;;;;12.48;80.27;99139.30;1779745;80;21069;-41
2022/10/23 09:17:56;;;;;;;24.92;15.18;;;;;;;12.54;80.16;99144.56;1779889;80;21297;-41
2022/10/23 09:20:28;;;;;;;18.45;13.22;;;;;;;12.55;80.37;99142.05;1751418;80;21499;-41
2022/10/23 09:23:00;;;;;;;16.90;13.13;;;;;;;12.61;80.28;99145.98;1779919;80;21087;-41
2022/10/23 09:25:37;;;;;;;16.75;13.25;;;;;;;12.67;79.93;99138.83;1779337;80;20968;-41
2022/10/23 09:28:04;;;;;;;18.48;13.62;;;;;;;12.73;79.89;99143.52;1780105;80;21487;-41
2022/10/23 09:30:37;;;;;;;19.27;13.85;;;;;;;12.77;79.75;99139.48;1774691;80;21175;-41
2022/10/23 09:33:23;;;;;;;14.98;12.00;;;;;;;12.80;79.59;99142.80;1779918;80;20976;-41
2022/10/23 09:36:11;;;;;;;15.48;11.43;;;;;;;12.81;79.38;99143.00;1779889;80;20988;-41
2022/10/23 09:38:50;;;;;;;12.93;10.78;;;;;;;12.85;79.04;99140.50;1779734;80;21476;-41
2022/10/23 09:41:35;;;;;;;15.58;11.83;;;;;;;12.87;78.84;99146.94;1780029;80;21029;-41
2022/10/23 09:44:24;;;;;;;15.93;11.30;;;;;;;12.83;78.92;99146.14;1779742;80;21119;-41
2022/10/23 09:47:07;;;;;;;12.23;10.10;;;;;;;12.80;79.02;99146.87;1779604;80;21005;-41
2022/10/23 09:49:35;;;;;;;16.37;11.95;;;;;;;12.82;79.12;99133.69;1779808;80;21053;-41
2022/10/23 09:52:06;;;;;;;14.33;11.30;;;;;;;12.82;79.22;99135.05;1703088;80;21052;-41
2022/10/23 09:54:53;;;;;;;13.80;9.58;;;;;;;12.81;79.41;99134.27;1777765;80;21526;-41
2022/10/23 09:57:41;;;;;;;14.13;9.78;;;;;;;12.83;79.33;99135.26;1779418;80;22287;-41
2022/10/23 10:00:19;;;;;;;16.15;10.43;;;;;;;12.88;79.32;99141.67;1779906;80;20977;-41
2022/10/23 10:03:04;;;;;;;13.08;10.35;;;;;;;12.95;79.38;99139.79;1780312;80;20921;-41
2022/10/23 10:05:41;;;;;;;13.15;10.20;;;;;;;12.93;79.20;99138.59;1778445;80;21590;-41
2022/10/23 10:08:40;;;;;;;11.15;9.18;;;;;;;12.93;79.24;99142.67;1752472;80;21017;-41
2022/10/23 10:11:18;;;;;;;12.68;10.10;;;;;;;12.97;79.19;99145.61;1779829;80;21882;-41
2022/10/23 10:14:30;;;;;;;12.25;10.80;;;;;;;12.98;79.14;99137.66;1780044;80;20949;-41
2022/10/23 10:17:09;;;;;;;10.48;8.95;;;;;;;12.94;79.22;99139.58;1779801;80;20965;-41
2022/10/23 10:20:13;;;;;;;12.07;8.87;;;;;;;12.87;79.33;99139.56;1780186;80;21084;-41
2022/10/23 10:23:04;;;;;;;11.33;8.80;;;;;;;12.90;79.27;99134.70;1779898;80;20957;-41
2022/10/23 10:25:58;;;;;;;10.65;8.28;;;;;;;12.87;79.29;99130.03;1779885;80;21204;-41
2022/10/23 10:28:35;;;;;;;9.45;7.78;;;;;;;12.81;79.56;99129.41;1779748;80;21102;-41
2022/10/23 10:31:23;;;;;;;8.30;7.30;;;;;;;12.77;79.72;99126.67;1779634;80;21244;-41
2022/10/23 10:34:08;;;;;;;9.15;8.10;;;;;;;12.82;79.74;99130.97;1777953;80;21602;-41
2022/10/23 10:37:03;;;;;;;11.10;7.92;;;;;;;12.86;79.74;99123.03;1779182;80;21100;-41
2022/10/23 10:39:50;;;;;;;9.28;7.65;;;;;;;12.87;79.63;99126.53;1779362;80;23115;-41
2022/10/23 10:42:38;;;;;;;6.97;6.12;;;;;;;12.87;79.70;99120.52;1783519;80;20969;-41
2022/10/23 10:45:23;;;;;;;7.55;6.67;;;;;;;12.93;79.68;99131.21;1783726;80;20988;-41
2022/10/23 10:48:25;;;;;;;8.38;6.97;;;;;;;12.98;79.57;99127.35;1703000;80;21598;-41
2022/10/23 10:51:05;;;;;;;8.13;6.87;;;;;;;12.95;79.45;99120.74;1724831;80;21025;-41
2022/10/23 10:54:16;;;;;;;7.92;5.95;;;;;;;12.98;79.43;99124.63;1716628;83;21143;-41
2022/10/23 10:56:45;;;;;;;7.47;6.28;;;;;;;13.13;79.55;99131.73;1690323;82;20983;-41
2022/10/23 10:59:30;;;;;;;6.75;5.80;;;;;;;13.29;79.51;99121.33;1714912;83;20958;-41
2022/10/23 11:02:20;;;;;;;7.00;5.80;;;;;;;13.44;78.78;99119.44;1722866;82;20937;-41
2022/10/23 11:04:52;;;;;;;8.50;5.97;;;;;;;13.62;78.73;99122.98;1750585;82;21597;-41
2022/10/23 11:07:22;;;;;;;6.83;5.95;;;;;;;13.88;77.67;99125.39;1751270;81;21122;-41
2022/10/23 11:09:49;;;;;;;6.55;5.87;;;;;;;14.10;76.73;99120.73;1751820;81;21555;-41
2022/10/23 11:12:23;;;;;;;5.83;5.05;;;;;;;14.24;75.43;99122.10;1751418;81;21759;-41
2022/10/23 11:14:49;;;;;;;12.33;5.35;;;;;;;14.31;74.64;99123.48;1750855;82;20968;-41
2022/10/23 11:17:33;;;;;;;7.28;5.10;;;;;;;14.35;74.18;99126.98;1751376;81;20942;-41
2022/10/23 11:20:21;;;;;;;5.55;4.70;;;;;;;14.40;73.89;99126.42;1751370;81;21024;-41
2022/10/23 11:22:57;;;;;;;5.42;4.42;;;;;;;14.44;73.65;99117.64;1751444;82;21483;-41
2022/10/23 11:26:02;;;;;;;5.60;4.50;;;;;;;14.52;73.21;99115.91;1751729;82;20986;-41
2022/10/23 11:29:10;;;;;;;5.37;4.42;;;;;;;14.63;73.07;99124.05;1751574;81;20999;-41
2022/10/23 11:32:24;;;;;;;4.62;4.08;;;;;;;14.75;72.00;99119.57;1751626;81;21565;-41
2022/10/23 11:35:08;;;;;;;5.20;4.22;;;;;;;14.78;71.46;99127.74;1751474;82;23146;-41
2022/10/23 11:37:35;;;;;;;5.53;4.40;;;;;;;14.78;70.99;99131.05;1745759;82;21526;-41
2022/10/23 11:40:11;;;;;;;4.92;4.00;;;;;;;14.81;70.31;99132.23;1743908;82;21073;-41
2022/10/23 11:42:44;;;;;;;4.00;3.60;;;;;;;14.77;69.66;99139.05;1724059;83;20972;-41
2022/10/23 11:45:38;;;;;;;3.42;3.08;;;;;;;14.64;69.83;99148.81;1724310;83;21565;-41
2022/10/23 11:48:15;;;;;;;3.05;2.45;;;;;;;14.53;69.32;99148.81;1724016;83;21125;-41
2022/10/23 11:50:50;;;;;;;2.90;2.40;;;;;;;14.41;69.00;99152.53;1723457;83;21029;-41
2022/10/23 11:53:37;;;;;;;3.22;2.72;;;;;;;14.37;68.71;99150.39;1723803;83;21033;-41
2022/10/23 11:56:18;;;;;;;3.45;2.22;;;;;;;14.34;68.16;99155.41;1723711;83;21548;-41
2022/10/23 11:58:55;;;;;;;3.22;2.50;;;;;;;14.28;67.70;99146.66;1723812;83;21029;-41
2022/10/23 12:01:39;;;;;;;2.98;2.22;;;;;;;14.23;68.01;99142.34;1723821;83;21244;-41